createdAt,value
2023-12-15T00:00:02.952Z,9.443726
2023-12-15T00:01:02.993Z,9.443743
2023-12-15T00:02:03.050Z,9.443757
2023-12-15T00:03:03.088Z,9.443756
2023-12-15T00:04:02.984Z,9.443742
2023-12-15T00:05:02.983Z,9.443759
2023-12-15T00:06:02.936Z,9.443774
2023-12-15T00:07:02.917Z,9.443781
2023-12-15T00:08:02.997Z,9.443750
2023-12-15T00:09:02.938Z,9.443749
2023-12-15T00:10:02.913Z,9.443721
2023-12-15T00:11:03.765Z,9.443748
2023-12-15T00:12:02.874Z,9.443724
2023-12-15T00:13:02.854Z,9.443752
2023-12-15T00:14:02.912Z,9.443732
2023-12-15T00:15:02.878Z,9.443727
2023-12-15T00:16:02.842Z,9.443684
2023-12-15T00:17:03.816Z,9.443746
2023-12-15T00:18:03.092Z,9.443749
2023-12-15T00:19:02.888Z,9.443791
2023-12-15T00:20:03.018Z,9.443785
2023-12-15T00:21:02.808Z,9.443852
2023-12-15T00:22:02.829Z,9.443984
2023-12-15T00:23:02.843Z,9.443964
2023-12-15T00:24:02.821Z,9.443883
2023-12-15T00:25:02.790Z,9.443785
2023-12-15T00:26:02.801Z,9.443763
2023-12-15T00:27:02.759Z,9.443692
2023-12-15T00:28:02.820Z,9.443683
2023-12-15T00:29:02.782Z,9.443808
2023-12-15T00:30:02.751Z,9.443789
2023-12-15T00:31:02.802Z,9.443787
2023-12-15T00:32:02.759Z,9.443763
2023-12-15T00:33:02.794Z,9.443790
2023-12-15T00:34:02.988Z,9.443886
2023-12-15T00:35:02.733Z,9.443905
2023-12-15T00:36:02.718Z,9.443933
2023-12-15T00:37:02.691Z,9.443721
2023-12-15T00:38:02.799Z,9.443639
2023-12-15T00:39:02.724Z,9.443727
2023-12-15T00:40:02.717Z,9.443835
2023-12-15T00:41:02.715Z,9.443812
2023-12-15T00:42:02.674Z,9.443760
2023-12-15T00:43:02.661Z,9.443748
2023-12-15T00:44:02.758Z,9.443802
2023-12-15T00:45:02.649Z,9.443732
2023-12-15T00:46:02.653Z,9.443739
2023-12-15T00:47:02.830Z,9.443725
2023-12-15T00:48:02.671Z,9.443725
2023-12-15T00:49:02.868Z,9.443771
2023-12-15T00:50:02.940Z,9.443816
2023-12-15T00:51:02.638Z,9.443723
2023-12-15T00:52:02.626Z,9.443696
2023-12-15T00:53:02.678Z,9.443714
2023-12-15T00:54:02.622Z,9.443787
2023-12-15T00:55:02.733Z,9.443743
2023-12-15T00:56:02.649Z,9.443741
2023-12-15T00:57:02.591Z,9.443661
2023-12-15T00:58:03.070Z,9.443585
2023-12-15T00:59:02.644Z,9.443676
2023-12-15T01:00:02.608Z,9.443649
2023-12-15T01:01:02.584Z,9.443483
2023-12-15T01:02:02.624Z,9.443488
2023-12-15T01:03:02.581Z,9.443576
2023-12-15T01:04:02.525Z,9.443644
2023-12-15T01:05:02.719Z,9.443536
2023-12-15T01:06:02.751Z,9.443595
2023-12-15T01:07:02.528Z,9.443598
2023-12-15T01:08:02.612Z,9.443546
2023-12-15T01:09:02.504Z,9.443556
2023-12-15T01:10:02.502Z,9.443635
2023-12-15T01:11:02.532Z,9.443694
2023-12-15T01:12:02.476Z,9.443591
2023-12-15T01:13:02.524Z,9.443629
2023-12-15T01:14:03.699Z,9.443640
2023-12-15T01:15:02.704Z,9.443555
2023-12-15T01:16:02.481Z,9.443420
2023-12-15T01:17:02.506Z,9.443538
2023-12-15T01:18:02.612Z,9.443548
2023-12-15T01:19:02.516Z,9.443439
2023-12-15T01:20:02.611Z,9.443366
2023-12-15T01:21:02.475Z,9.443342
2023-12-15T01:22:02.418Z,9.443386
2023-12-15T01:23:02.466Z,9.443563
2023-12-15T01:24:02.411Z,9.443599
2023-12-15T01:25:03.418Z,9.443526
2023-12-15T01:26:02.425Z,9.443570
2023-12-15T01:27:02.418Z,9.443583
2023-12-15T01:28:02.460Z,9.443579
2023-12-15T01:29:02.431Z,9.443537
2023-12-15T01:30:02.403Z,9.443566
2023-12-15T01:31:03.138Z,9.443616
2023-12-15T01:32:02.492Z,9.443588
2023-12-15T01:33:02.416Z,9.443593
2023-12-15T01:34:02.453Z,9.443558
2023-12-15T01:35:02.433Z,9.443472
2023-12-15T01:36:02.324Z,9.443439
2023-12-15T01:37:02.326Z,9.443513
2023-12-15T01:38:02.602Z,9.443534
2023-12-15T01:39:02.345Z,9.443463
2023-12-15T01:40:02.344Z,9.443464
2023-12-15T01:41:02.330Z,9.443654
2023-12-15T01:42:02.327Z,9.443600
2023-12-15T01:43:02.306Z,9.443583
2023-12-15T01:44:02.438Z,9.443474
2023-12-15T01:45:02.278Z,9.443519
2023-12-15T01:46:08.770Z,9.443576
2023-12-15T01:47:03.342Z,9.443568
2023-12-15T01:48:02.450Z,9.443463
2023-12-15T01:49:02.356Z,9.443432
2023-12-15T01:50:02.344Z,9.443630
2023-12-15T01:51:02.239Z,9.443593
2023-12-15T01:52:02.254Z,9.443657
2023-12-15T01:53:02.297Z,9.443681
2023-12-15T01:54:02.238Z,9.443791
2023-12-15T01:55:02.216Z,9.443813
2023-12-15T01:56:02.256Z,9.443692
2023-12-15T01:57:02.203Z,9.443675
2023-12-15T01:58:02.274Z,9.443691
2023-12-15T01:59:02.284Z,9.443608
2023-12-15T02:00:02.252Z,9.443638
2023-12-15T02:01:02.257Z,9.443634
2023-12-15T02:02:02.194Z,9.443604
2023-12-15T02:03:02.164Z,9.443596
2023-12-15T02:04:02.237Z,9.443605
2023-12-15T02:05:02.238Z,9.443563
2023-12-15T02:06:02.235Z,9.443574
2023-12-15T02:07:02.148Z,9.443672
2023-12-15T02:08:02.163Z,9.443627
2023-12-15T02:09:02.149Z,9.443563
2023-12-15T02:10:02.130Z,9.443711
2023-12-15T02:11:02.153Z,9.443600
2023-12-15T02:12:02.114Z,9.443752
2023-12-15T02:13:02.128Z,9.443447
2023-12-15T02:14:02.116Z,9.443597
2023-12-15T02:15:02.114Z,9.443658
2023-12-15T02:16:02.086Z,9.443762
2023-12-15T02:17:02.100Z,9.443610
2023-12-15T02:18:02.253Z,9.443695
2023-12-15T02:19:02.158Z,9.443781
2023-12-15T02:20:02.268Z,9.443720
2023-12-15T02:21:03.072Z,9.443735
2023-12-15T02:22:02.048Z,9.443718
2023-12-15T02:23:02.087Z,9.443702
2023-12-15T02:24:02.039Z,9.443483
2023-12-15T02:25:02.073Z,9.443482
2023-12-15T02:26:02.055Z,9.443805
2023-12-15T02:27:03.711Z,9.443928
2023-12-15T02:28:02.021Z,9.443706
2023-12-15T02:29:02.014Z,9.443667
2023-12-15T02:30:02.013Z,9.443376
2023-12-15T02:31:02.020Z,9.443381
2023-12-15T02:32:02.105Z,9.443564
2023-12-15T02:33:02.137Z,9.443525
2023-12-15T02:34:02.033Z,9.443620
2023-12-15T02:35:02.038Z,9.443831
2023-12-15T02:36:01.985Z,9.443767
2023-12-15T02:37:01.960Z,9.443637
2023-12-15T02:38:02.015Z,9.443510
2023-12-15T02:39:01.954Z,9.443585
2023-12-15T02:40:01.944Z,9.443695
2023-12-15T02:41:01.966Z,9.443758
2023-12-15T02:42:01.941Z,9.443871
2023-12-15T02:43:01.937Z,9.443861
2023-12-15T02:44:01.920Z,9.443570
2023-12-15T02:45:01.926Z,9.443645
2023-12-15T02:46:01.905Z,9.443752
2023-12-15T02:47:02.019Z,9.443681
2023-12-15T02:48:02.134Z,9.443821
2023-12-15T02:49:01.998Z,9.443845
2023-12-15T02:50:01.924Z,9.444006
2023-12-15T02:51:01.894Z,9.444252
2023-12-15T02:52:01.876Z,9.443882
2023-12-15T02:53:02.058Z,9.443871
2023-12-15T02:54:01.894Z,9.444052
2023-12-15T02:55:01.853Z,9.444021
2023-12-15T02:56:02.781Z,9.443953
2023-12-15T02:57:01.849Z,9.443954
2023-12-15T02:58:01.891Z,9.443905
2023-12-15T02:59:01.847Z,9.443932
2023-12-15T03:00:01.833Z,9.443892
2023-12-15T03:01:01.886Z,9.443719
2023-12-15T03:02:01.968Z,9.443763
2023-12-15T03:03:01.839Z,9.443689
2023-12-15T03:04:01.790Z,9.443625
2023-12-15T03:05:01.811Z,9.443571
2023-12-15T03:06:02.864Z,9.443669
2023-12-15T03:07:02.731Z,9.443666
2023-12-15T03:08:01.835Z,9.443662
2023-12-15T03:09:01.779Z,9.443736
2023-12-15T03:10:01.763Z,9.443655
2023-12-15T03:11:01.782Z,9.443678
2023-12-15T03:12:01.777Z,9.443693
2023-12-15T03:13:01.743Z,9.443707
2023-12-15T03:14:01.764Z,9.443703
2023-12-15T03:15:01.735Z,9.443626
2023-12-15T03:16:01.723Z,9.443673
2023-12-15T03:17:01.930Z,9.443684
2023-12-15T03:18:35.205Z,9.443777
2023-12-15T03:19:01.741Z,9.443620
2023-12-15T03:20:35.185Z,9.443589
2023-12-15T03:21:01.694Z,9.443506
2023-12-15T03:22:01.685Z,9.443440
2023-12-15T03:23:01.737Z,9.443430
2023-12-15T03:24:01.691Z,9.443650
2023-12-15T03:25:01.666Z,9.443565
2023-12-15T03:26:01.715Z,9.443458
2023-12-15T03:27:35.183Z,9.443538
2023-12-15T03:28:35.114Z,9.443735
2023-12-15T03:29:01.694Z,9.443657
2023-12-15T03:30:01.636Z,9.443485
2023-12-15T03:31:01.651Z,9.443316
2023-12-15T03:32:01.675Z,9.443051
2023-12-15T03:33:01.702Z,9.443130
2023-12-15T03:34:01.685Z,9.443301
2023-12-15T03:35:02.318Z,9.443478
2023-12-15T03:36:01.614Z,9.443387
2023-12-15T03:37:01.617Z,9.443197
2023-12-15T03:38:01.619Z,9.443566
2023-12-15T03:39:01.611Z,9.443567
2023-12-15T03:40:01.591Z,9.443576
2023-12-15T03:41:01.586Z,9.443688
2023-12-15T03:42:01.557Z,9.443647
2023-12-15T03:43:01.564Z,9.443610
2023-12-15T03:44:01.677Z,9.443668
2023-12-15T03:45:01.573Z,9.443660
2023-12-15T03:46:01.534Z,9.443665
2023-12-15T03:47:01.569Z,9.443705
2023-12-15T03:48:01.640Z,9.443745
2023-12-15T03:49:01.557Z,9.443673
2023-12-15T03:50:01.607Z,9.443686
2023-12-15T03:51:01.687Z,9.443598
2023-12-15T03:52:01.536Z,9.443669
2023-12-15T03:53:01.590Z,9.443680
2023-12-15T03:54:01.517Z,9.443695
2023-12-15T03:55:01.502Z,9.443730
2023-12-15T03:56:01.535Z,9.443757
2023-12-15T03:57:01.487Z,9.443689
2023-12-15T03:58:01.473Z,9.443654
2023-12-15T03:59:01.484Z,9.443744
2023-12-15T04:00:01.503Z,9.443698
2023-12-15T04:01:01.514Z,9.443626
2023-12-15T04:02:01.491Z,9.443587
2023-12-15T04:03:01.462Z,9.443574
2023-12-15T04:04:01.431Z,9.443604
2023-12-15T04:05:01.503Z,9.443714
2023-12-15T04:06:01.487Z,9.443674
2023-12-15T04:07:01.413Z,9.443720
2023-12-15T04:08:01.474Z,9.443648
2023-12-15T04:09:01.410Z,9.443650
2023-12-15T04:10:01.416Z,9.443721
2023-12-15T04:11:01.478Z,9.443713
2023-12-15T04:12:01.392Z,9.443750
2023-12-15T04:13:01.373Z,9.443708
2023-12-15T04:14:01.415Z,9.443679
2023-12-15T04:15:01.376Z,9.443684
2023-12-15T04:16:01.390Z,9.443563
2023-12-15T04:17:01.389Z,9.443725
2023-12-15T04:18:01.693Z,9.443808
2023-12-15T04:19:01.457Z,9.443776
2023-12-15T04:20:01.594Z,9.443558
2023-12-15T04:21:01.341Z,9.443660
2023-12-15T04:22:01.325Z,9.443735
2023-12-15T04:23:01.346Z,9.443789
2023-12-15T04:24:01.326Z,9.443831
2023-12-15T04:25:01.332Z,9.443811
2023-12-15T04:26:01.447Z,9.443781
2023-12-15T04:27:01.346Z,9.443720
2023-12-15T04:28:01.286Z,9.443706
2023-12-15T04:29:01.324Z,9.443694
2023-12-15T04:30:01.279Z,9.443757
2023-12-15T04:31:01.280Z,9.443715
2023-12-15T04:32:01.306Z,9.443645
2023-12-15T04:33:01.328Z,9.443608
2023-12-15T04:34:01.306Z,9.443617
2023-12-15T04:35:01.336Z,9.443528
2023-12-15T04:36:01.250Z,9.443449
2023-12-15T04:37:01.243Z,9.443413
2023-12-15T04:38:01.270Z,9.443430
2023-12-15T04:39:01.262Z,9.443457
2023-12-15T04:40:01.216Z,9.443451
2023-12-15T04:41:01.236Z,9.443496
2023-12-15T04:42:01.314Z,9.443525
2023-12-15T04:43:01.207Z,9.443575
2023-12-15T04:44:01.237Z,9.443677
2023-12-15T04:45:01.188Z,9.443624
2023-12-15T04:46:01.181Z,9.443741
2023-12-15T04:47:01.197Z,9.443721
2023-12-15T04:48:01.405Z,9.443604
2023-12-15T04:49:01.302Z,9.443570
2023-12-15T04:50:01.230Z,9.443566
2023-12-15T04:51:01.153Z,9.443619
2023-12-15T04:52:01.200Z,9.443650
2023-12-15T04:53:01.266Z,9.443698
2023-12-15T04:54:01.157Z,9.443847
2023-12-15T04:55:01.140Z,9.443659
2023-12-15T04:56:01.155Z,9.443669
2023-12-15T04:57:01.153Z,9.443720
2023-12-15T04:58:01.117Z,9.443768
2023-12-15T04:59:01.126Z,9.443712
2023-12-15T05:00:01.161Z,9.443839
2023-12-15T05:01:01.095Z,9.443662
2023-12-15T05:02:01.116Z,9.443644
2023-12-15T05:03:01.105Z,9.443949
2023-12-15T05:04:02.069Z,9.443977
2023-12-15T05:05:01.107Z,9.443642
2023-12-15T05:06:01.115Z,9.443651
2023-12-15T05:07:01.042Z,9.443672
2023-12-15T05:08:01.088Z,9.443604
2023-12-15T05:09:01.058Z,9.443679
2023-12-15T05:10:01.091Z,9.443636
2023-12-15T05:11:01.052Z,9.443688
2023-12-15T05:12:01.019Z,9.443765
2023-12-15T05:13:01.033Z,9.443717
2023-12-15T05:14:01.373Z,9.443717
2023-12-15T05:15:01.000Z,9.443745
2023-12-15T05:16:00.985Z,9.443654
2023-12-15T05:17:02.868Z,9.443739
2023-12-15T05:18:01.226Z,9.443748
2023-12-15T05:19:01.274Z,9.443798
2023-12-15T05:20:01.016Z,9.443744
2023-12-15T05:21:01.769Z,9.443984
2023-12-15T05:22:01.017Z,9.443772
2023-12-15T05:23:01.004Z,9.443619
2023-12-15T05:24:00.987Z,9.443714
2023-12-15T05:25:00.934Z,9.443774
2023-12-15T05:26:00.996Z,9.443734
2023-12-15T05:27:00.960Z,9.443746
2023-12-15T05:28:00.922Z,9.443757
2023-12-15T05:29:00.971Z,9.443782
2023-12-15T05:30:00.904Z,9.443755
2023-12-15T05:31:00.945Z,9.443804
2023-12-15T05:32:00.937Z,9.443777
2023-12-15T05:33:02.925Z,9.443686
2023-12-15T05:34:00.960Z,9.443791
2023-12-15T05:35:04.223Z,9.443667
2023-12-15T05:36:01.880Z,9.443760
2023-12-15T05:37:00.864Z,9.443767
2023-12-15T05:38:00.886Z,9.443640
2023-12-15T05:39:00.869Z,9.443712
2023-12-15T05:40:00.855Z,9.443754
2023-12-15T05:41:00.891Z,9.443685
2023-12-15T05:42:00.932Z,9.443829
2023-12-15T05:43:00.882Z,9.443785
2023-12-15T05:44:00.849Z,9.443680
2023-12-15T05:45:00.840Z,9.443803
2023-12-15T05:46:00.816Z,9.443771
2023-12-15T05:47:00.961Z,9.443692
2023-12-15T05:48:00.918Z,9.443776
2023-12-15T05:49:00.981Z,9.443703
2023-12-15T05:50:01.028Z,9.443689
2023-12-15T05:51:00.860Z,9.443690
2023-12-15T05:52:00.845Z,9.443725
2023-12-15T05:53:00.852Z,9.443620
2023-12-15T05:54:00.820Z,9.443650
2023-12-15T05:55:00.747Z,9.443737
2023-12-15T05:56:00.800Z,9.443776
2023-12-15T05:57:00.760Z,9.443624
2023-12-15T05:58:00.759Z,9.443658
2023-12-15T05:59:00.787Z,9.443659
2023-12-15T06:00:00.781Z,9.443711
2023-12-15T06:01:00.770Z,9.443695
2023-12-15T06:02:00.826Z,9.443625
2023-12-15T06:03:00.830Z,9.443600
2023-12-15T06:04:00.711Z,9.443645
2023-12-15T06:05:01.518Z,9.443635
2023-12-15T06:06:00.731Z,9.443706
2023-12-15T06:07:00.682Z,9.443660
2023-12-15T06:08:00.791Z,9.443672
2023-12-15T06:09:00.703Z,9.443725
2023-12-15T06:10:00.649Z,9.443823
2023-12-15T06:11:00.717Z,9.443660
2023-12-15T06:12:00.634Z,9.443556
2023-12-15T06:13:00.643Z,9.443641
2023-12-15T06:14:00.682Z,9.443659
2023-12-15T06:15:00.642Z,9.443637
2023-12-15T06:16:00.622Z,9.443608
2023-12-15T06:17:00.618Z,9.443632
2023-12-15T06:18:00.766Z,9.443660
2023-12-15T06:19:00.714Z,9.443690
2023-12-15T06:20:00.702Z,9.443679
2023-12-15T06:21:00.584Z,9.443695
2023-12-15T06:22:00.582Z,9.443769
2023-12-15T06:23:00.635Z,9.443644
2023-12-15T06:24:00.600Z,9.443651
2023-12-15T06:25:00.564Z,9.443711
2023-12-15T06:26:00.653Z,9.443721
2023-12-15T06:27:00.558Z,9.443721
2023-12-15T06:28:00.558Z,9.443689
2023-12-15T06:29:00.586Z,9.443638
2023-12-15T06:30:00.541Z,9.443659
2023-12-15T06:31:00.609Z,9.443686
2023-12-15T06:32:00.585Z,9.443643
2023-12-15T06:33:00.554Z,9.443732
2023-12-15T06:34:00.586Z,9.443734
2023-12-15T06:35:00.551Z,9.443744
2023-12-15T06:36:00.557Z,9.443632
2023-12-15T06:37:00.565Z,9.443561
2023-12-15T06:38:00.542Z,9.443587
2023-12-15T06:39:00.522Z,9.443610
2023-12-15T06:40:00.545Z,9.443624
2023-12-15T06:41:00.489Z,9.443741
2023-12-15T06:42:00.484Z,9.443810
2023-12-15T06:43:00.448Z,9.443761
2023-12-15T06:44:00.492Z,9.443791
2023-12-15T06:45:00.483Z,9.443749
2023-12-15T06:46:01.426Z,9.443715
2023-12-15T06:47:00.516Z,9.443739
2023-12-15T06:48:00.739Z,9.443718
2023-12-15T06:49:00.476Z,9.443722
2023-12-15T06:50:00.506Z,9.443706
2023-12-15T06:51:00.394Z,9.443665
2023-12-15T06:52:00.572Z,9.443725
2023-12-15T06:53:00.451Z,9.443739
2023-12-15T06:54:00.415Z,9.443748
2023-12-15T06:55:00.400Z,9.443696
2023-12-15T06:56:00.433Z,9.443666
2023-12-15T06:57:00.384Z,9.443684
2023-12-15T06:58:00.368Z,9.443724
2023-12-15T06:59:00.406Z,9.443733
2023-12-15T07:00:00.356Z,9.443728
2023-12-15T07:01:00.392Z,9.443785
2023-12-15T07:02:00.394Z,9.443775
2023-12-15T07:03:00.344Z,9.443762
2023-12-15T07:04:00.410Z,9.443693
2023-12-15T07:05:00.732Z,9.443694
2023-12-15T07:06:00.428Z,9.443638
2023-12-15T07:07:00.849Z,9.443547
2023-12-15T07:08:00.387Z,9.443554
2023-12-15T07:09:00.300Z,9.443581
2023-12-15T07:10:00.353Z,9.443588
2023-12-15T07:11:00.319Z,9.443654
2023-12-15T07:12:00.300Z,9.443589
2023-12-15T07:13:00.289Z,9.443493
2023-12-15T07:14:00.347Z,9.443498
2023-12-15T07:15:00.354Z,9.443542
2023-12-15T07:16:02.335Z,9.443674
2023-12-15T07:17:01.276Z,9.443578
2023-12-15T07:18:00.326Z,9.443493
2023-12-15T07:19:00.343Z,9.443403
2023-12-15T07:20:00.405Z,9.443514
2023-12-15T07:21:00.269Z,9.443519
2023-12-15T07:22:00.227Z,9.443525
2023-12-15T07:23:00.346Z,9.443525
2023-12-15T07:24:00.213Z,9.443552
2023-12-15T07:25:00.224Z,9.443588
2023-12-15T07:26:00.272Z,9.443635
2023-12-15T07:27:00.191Z,9.443308
2023-12-15T07:28:00.186Z,9.443155
2023-12-15T07:29:00.265Z,9.443168
2023-12-15T07:30:00.220Z,9.443384
2023-12-15T07:31:00.195Z,9.443415
2023-12-15T07:32:00.197Z,9.443502
2023-12-15T07:33:00.372Z,9.443600
2023-12-15T07:34:00.207Z,9.443426
2023-12-15T07:35:00.215Z,9.443435
2023-12-15T07:36:00.202Z,9.443517
2023-12-15T07:37:00.115Z,9.443477
2023-12-15T07:38:00.272Z,9.443488
2023-12-15T07:39:00.097Z,9.443498
2023-12-15T07:40:00.528Z,9.443474
2023-12-15T07:41:00.136Z,9.443499
2023-12-15T07:42:00.081Z,9.443545
2023-12-15T07:43:00.070Z,9.443490
2023-12-15T07:44:00.130Z,9.443447
2023-12-15T07:45:00.077Z,9.443378
2023-12-15T07:46:00.096Z,9.443377
2023-12-15T07:47:00.081Z,9.443433
2023-12-15T07:48:00.250Z,9.443423
2023-12-15T07:49:00.147Z,9.443456
2023-12-15T07:50:00.095Z,9.443559
2023-12-15T07:51:00.080Z,9.443627
2023-12-15T07:52:00.021Z,9.443613
2023-12-15T07:53:00.084Z,9.443539
2023-12-15T07:54:01.007Z,9.443623
2023-12-15T07:55:00.032Z,9.443668
2023-12-15T07:56:00.069Z,9.443590
2023-12-15T07:56:59.990Z,9.443659
2023-12-15T07:57:59.990Z,9.443710
2023-12-15T07:59:00.000Z,9.443698
2023-12-15T08:00:00.062Z,9.443736
2023-12-15T08:01:00.024Z,9.443707
2023-12-15T08:02:00.013Z,9.443793
2023-12-15T08:03:00.000Z,9.443790
2023-12-15T08:03:59.944Z,9.443925
2023-12-15T08:04:59.986Z,9.443958
2023-12-15T08:06:00.059Z,9.443838
2023-12-15T08:06:59.909Z,9.443737
2023-12-15T08:07:59.918Z,9.443714
2023-12-15T08:08:59.917Z,9.443760
2023-12-15T08:10:00.798Z,9.443810
2023-12-15T08:11:02.236Z,9.443839
2023-12-15T08:12:00.971Z,9.444009
2023-12-15T08:12:59.884Z,9.443907
2023-12-15T08:13:59.960Z,9.443807
2023-12-15T08:14:59.878Z,9.443707
2023-12-15T08:15:59.864Z,9.443680
2023-12-15T08:16:59.916Z,9.443660
2023-12-15T08:17:59.942Z,9.443646
2023-12-15T08:18:59.980Z,9.443629
2023-12-15T08:19:59.871Z,9.443628
2023-12-15T08:20:59.862Z,9.443618
2023-12-15T08:21:59.832Z,9.443645
2023-12-15T08:22:59.858Z,9.443644
2023-12-15T08:23:59.851Z,9.443605
2023-12-15T08:24:59.802Z,9.443726
2023-12-15T08:26:33.274Z,9.443691
2023-12-15T08:27:33.234Z,9.443755
2023-12-15T08:27:59.836Z,9.443734
2023-12-15T08:28:59.854Z,9.443765
2023-12-15T08:29:59.780Z,9.443774
2023-12-15T08:30:59.866Z,9.443753
2023-12-15T08:31:59.832Z,9.443791
2023-12-15T08:32:59.918Z,9.443690
2023-12-15T08:33:59.812Z,9.443561
2023-12-15T08:34:59.769Z,9.443544
2023-12-15T08:35:59.733Z,9.443641
2023-12-15T08:37:33.181Z,9.443847
2023-12-15T08:37:59.764Z,9.443886
2023-12-15T08:38:59.844Z,9.444202
2023-12-15T08:39:59.739Z,9.443951
2023-12-15T08:40:59.751Z,9.443852
2023-12-15T08:41:59.741Z,9.443758
2023-12-15T08:42:59.685Z,9.443591
2023-12-15T08:44:00.750Z,9.443525
2023-12-15T08:44:59.710Z,9.443601
2023-12-15T08:45:59.684Z,9.443647
2023-12-15T08:46:59.710Z,9.443492
2023-12-15T08:47:59.903Z,9.443708
2023-12-15T08:48:59.769Z,9.443819
2023-12-15T08:49:59.696Z,9.443800
2023-12-15T08:50:59.744Z,9.443761
2023-12-15T08:51:59.635Z,9.443803
2023-12-15T08:52:59.709Z,9.443782
2023-12-15T08:53:59.966Z,9.443761
2023-12-15T08:54:59.638Z,9.443744
2023-12-15T08:55:59.654Z,9.443811
2023-12-15T08:56:59.740Z,9.443740
2023-12-15T08:57:59.596Z,9.443681
2023-12-15T08:58:59.614Z,9.443719
2023-12-15T08:59:59.597Z,9.443750
2023-12-15T09:00:59.673Z,9.443754
2023-12-15T09:01:59.647Z,9.443779
2023-12-15T09:02:59.584Z,9.443769
2023-12-15T09:03:59.630Z,9.443814
2023-12-15T09:05:03.720Z,9.443786
2023-12-15T09:06:23.246Z,9.443724
2023-12-15T09:07:00.626Z,9.443783
2023-12-15T09:07:59.729Z,9.443784
2023-12-15T09:08:59.810Z,9.443748
2023-12-15T09:09:59.549Z,9.443738
2023-12-15T09:10:59.529Z,9.443789
2023-12-15T09:11:59.489Z,9.443817
2023-12-15T09:12:59.529Z,9.443844
2023-12-15T09:13:59.529Z,9.443834
2023-12-15T09:14:59.507Z,9.443817
2023-12-15T09:15:59.571Z,9.443776
2023-12-15T09:16:59.502Z,9.443710
2023-12-15T09:17:59.691Z,9.443561
2023-12-15T09:18:59.584Z,9.443660
2023-12-15T09:19:59.506Z,9.443750
2023-12-15T09:20:59.451Z,9.443670
2023-12-15T09:21:59.520Z,9.443739
2023-12-15T09:22:59.443Z,9.443773
2023-12-15T09:23:59.423Z,9.443810
2023-12-15T09:24:59.455Z,9.443714
2023-12-15T09:25:59.422Z,9.443717
2023-12-15T09:26:59.418Z,9.443733
2023-12-15T09:27:59.459Z,9.443751
2023-12-15T09:28:59.450Z,9.443804
2023-12-15T09:29:59.392Z,9.443677
2023-12-15T09:30:59.429Z,9.443654
2023-12-15T09:31:59.411Z,9.443687
2023-12-15T09:32:59.413Z,9.443687
2023-12-15T09:33:59.454Z,9.443759
2023-12-15T09:34:59.400Z,9.443754
2023-12-15T09:35:59.359Z,9.443724
2023-12-15T09:36:59.635Z,9.443772
2023-12-15T09:37:59.391Z,9.443719
2023-12-15T09:39:01.771Z,9.443761
2023-12-15T09:39:59.375Z,9.443743
2023-12-15T09:40:59.359Z,9.443597
2023-12-15T09:41:59.374Z,9.443611
2023-12-15T09:42:59.334Z,9.443663
2023-12-15T09:43:59.314Z,9.443701
2023-12-15T09:45:06.736Z,9.443700
2023-12-15T09:46:01.354Z,9.443741
2023-12-15T09:46:59.305Z,9.443697
2023-12-15T09:47:59.343Z,9.443653
2023-12-15T09:48:59.359Z,9.443756
2023-12-15T09:49:59.298Z,9.443832
2023-12-15T09:50:59.285Z,9.443578
2023-12-15T09:51:59.305Z,9.443666
2023-12-15T09:52:59.273Z,9.443717
2023-12-15T09:53:59.241Z,9.443763
2023-12-15T09:54:59.293Z,9.443672
2023-12-15T09:55:59.298Z,9.443708
2023-12-15T09:56:59.292Z,9.443736
2023-12-15T09:57:59.296Z,9.443708
2023-12-15T09:58:59.244Z,9.443673
2023-12-15T09:59:59.201Z,9.443668
2023-12-15T10:00:59.296Z,9.443679
2023-12-15T10:01:59.193Z,9.443646
2023-12-15T10:02:59.348Z,9.443665
2023-12-15T10:03:59.238Z,9.443681
2023-12-15T10:04:59.231Z,9.443702
2023-12-15T10:05:59.180Z,9.443696
2023-12-15T10:06:59.260Z,9.443726
2023-12-15T10:07:59.509Z,9.443684
2023-12-15T10:09:02.647Z,9.443654
2023-12-15T10:09:59.194Z,9.443632
2023-12-15T10:10:59.201Z,9.443610
2023-12-15T10:11:59.138Z,9.443647
2023-12-15T10:12:59.201Z,9.443650
2023-12-15T10:13:59.166Z,9.443698
2023-12-15T10:14:59.110Z,9.443745
2023-12-15T10:15:59.182Z,9.443715
2023-12-15T10:16:59.113Z,9.443750
2023-12-15T10:17:59.398Z,9.443744
2023-12-15T10:18:59.249Z,9.443707
2023-12-15T10:19:59.148Z,9.443670
2023-12-15T10:20:59.112Z,9.443657
2023-12-15T10:21:59.112Z,9.443654
2023-12-15T10:22:59.066Z,9.443713
2023-12-15T10:23:59.100Z,9.443721
2023-12-15T10:24:59.085Z,9.443733
2023-12-15T10:25:59.159Z,9.443724
2023-12-15T10:26:59.032Z,9.443707
2023-12-15T10:28:01.479Z,9.443769
2023-12-15T10:28:59.110Z,9.443756
2023-12-15T10:29:59.052Z,9.443788
2023-12-15T10:30:59.066Z,9.443721
2023-12-15T10:31:59.036Z,9.443670
2023-12-15T10:32:59.376Z,9.443727
2023-12-15T10:34:01.432Z,9.443773
2023-12-15T10:34:58.999Z,9.443790
2023-12-15T10:35:59.002Z,9.443711
2023-12-15T10:36:59.041Z,9.443728
2023-12-15T10:37:58.988Z,9.443702
2023-12-15T10:38:58.965Z,9.443649
2023-12-15T10:40:02.627Z,9.443675
2023-12-15T10:40:59.003Z,9.443672
2023-12-15T10:41:58.994Z,9.443709
2023-12-15T10:42:58.998Z,9.443800
2023-12-15T10:43:58.959Z,9.443744
2023-12-15T10:44:58.959Z,9.443702
2023-12-15T10:46:00.365Z,9.443715
2023-12-15T10:46:58.989Z,9.443789
2023-12-15T10:47:59.212Z,9.443820
2023-12-15T10:48:59.010Z,9.443731
2023-12-15T10:49:59.125Z,9.443680
2023-12-15T10:50:58.909Z,9.443739
2023-12-15T10:52:00.258Z,9.443709
2023-12-15T10:52:58.919Z,9.443731
2023-12-15T10:53:58.956Z,9.443761
2023-12-15T10:54:58.875Z,9.443769
2023-12-15T10:55:58.915Z,9.443786
2023-12-15T10:56:58.844Z,9.443792
2023-12-15T10:58:01.247Z,9.443830
2023-12-15T10:58:58.949Z,9.443722
2023-12-15T10:59:58.824Z,9.443714
2023-12-15T11:00:59.011Z,9.443747
2023-12-15T11:01:59.845Z,9.443703
2023-12-15T11:02:58.798Z,9.443805
2023-12-15T11:04:00.322Z,9.443769
2023-12-15T11:04:58.839Z,9.443764
2023-12-15T11:05:58.877Z,9.443737
2023-12-15T11:06:58.806Z,9.443768
2023-12-15T11:07:58.788Z,9.443746
2023-12-15T11:08:58.792Z,9.443736
2023-12-15T11:10:01.704Z,9.443905
2023-12-15T11:10:58.797Z,9.443823
2023-12-15T11:11:58.779Z,9.443828
2023-12-15T11:12:58.736Z,9.443790
2023-12-15T11:13:58.848Z,9.443828
2023-12-15T11:14:58.719Z,9.443863
2023-12-15T11:15:58.780Z,9.443761
2023-12-15T11:16:58.827Z,9.443749
2023-12-15T11:17:59.164Z,9.443782
2023-12-15T11:18:58.938Z,9.443793
2023-12-15T11:19:58.830Z,9.443703
2023-12-15T11:20:58.733Z,9.443712
2023-12-15T11:21:58.678Z,9.443769
2023-12-15T11:22:58.991Z,9.443741
2023-12-15T11:23:58.843Z,9.443662
2023-12-15T11:24:58.709Z,9.443725
2023-12-15T11:25:58.916Z,9.443735
2023-12-15T11:26:58.720Z,9.443904
2023-12-15T11:27:58.713Z,9.443667
2023-12-15T11:28:58.715Z,9.443768
2023-12-15T11:29:58.650Z,9.443818
2023-12-15T11:30:58.741Z,9.443803
2023-12-15T11:31:59.366Z,9.443821
2023-12-15T11:32:58.713Z,9.443741
2023-12-15T11:33:58.705Z,9.443776
2023-12-15T11:34:58.642Z,9.443752
2023-12-15T11:35:58.600Z,9.443721
2023-12-15T11:36:58.641Z,9.443671
2023-12-15T11:37:58.689Z,9.443728
2023-12-15T11:38:58.639Z,9.443748
2023-12-15T11:39:58.667Z,9.443726
2023-12-15T11:40:58.618Z,9.443696
2023-12-15T11:41:58.583Z,9.443758
2023-12-15T11:42:58.566Z,9.443696
2023-12-15T11:44:01.860Z,9.443667